Time;durP1;ratioP1;P1;durP2;ratioP2;P2;SDS_P1;SDS_P2;PMS_P1;PMS_P2;Temp;Humidity;BMP_temperature;BMP_pressure;BME280_temperature;BME280_humidity;BME280_pressure;Samples;Min_cycle;Max_cycle;Signal;HPM_P1;HPM_P2
2023/11/04 00:00:44;;;;;;;1.67;1.30;;;5.00;99.90;;;;;;5026815;28;20185;-84
2023/11/04 00:03:11;;;;;;;2.97;1.60;;;5.00;99.90;;;;;;5030163;28;20203;-83
2023/11/04 00:05:38;;;;;;;2.23;1.40;;;5.00;99.90;;;;;;5031123;28;20197;-84
2023/11/04 00:08:06;;;;;;;1.50;1.40;;;5.00;99.90;;;;;;5028874;28;21032;-84
2023/11/04 00:10:33;;;;;;;1.20;1.10;;;5.00;99.90;;;;;;5034402;28;20186;-83
2023/11/04 00:13:00;;;;;;;2.70;1.33;;;4.90;99.90;;;;;;5027908;28;20226;-84
2023/11/04 00:15:26;;;;;;;1.87;1.40;;;4.90;99.90;;;;;;5031697;28;20193;-84
2023/11/04 00:17:54;;;;;;;1.23;1.13;;;4.90;99.90;;;;;;5033878;28;20210;-84
2023/11/04 00:20:21;;;;;;;2.07;1.40;;;4.80;99.90;;;;;;5037935;28;20237;-84
2023/11/04 00:22:48;;;;;;;1.30;1.20;;;4.80;99.90;;;;;;5042233;28;20689;-84
2023/11/04 00:25:16;;;;;;;2.70;1.23;;;4.80;99.90;;;;;;5044618;28;20216;-83
2023/11/04 00:27:43;;;;;;;1.30;1.20;;;4.80;99.90;;;;;;5040686;28;20647;-84
2023/11/04 00:30:10;;;;;;;2.40;1.37;;;4.80;99.90;;;;;;5030344;28;20202;-84
2023/11/04 00:32:37;;;;;;;2.30;1.30;;;4.80;99.90;;;;;;5030713;28;20240;-83
2023/11/04 00:35:05;;;;;;;2.40;1.40;;;4.70;99.90;;;;;;5033121;28;20218;-84
2023/11/04 00:37:32;;;;;;;1.40;1.20;;;4.60;99.90;;;;;;5020920;28;20701;-83
2023/11/04 00:40:00;;;;;;;1.27;1.10;;;4.60;99.90;;;;;;5033954;28;20198;-84
2023/11/04 00:42:29;;;;;;;1.30;1.20;;;4.60;99.90;;;;;;5030269;28;20194;-84
2023/11/04 00:44:56;;;;;;;2.07;1.10;;;4.60;99.90;;;;;;5029239;28;20198;-84
2023/11/04 00:47:23;;;;;;;1.53;1.43;;;4.50;99.90;;;;;;5029469;28;20241;-84
2023/11/04 00:49:50;;;;;;;1.57;1.30;;;4.50;99.90;;;;;;5027601;28;20309;-84
2023/11/04 00:52:16;;;;;;;1.20;1.10;;;4.50;99.90;;;;;;5026433;28;20214;-84
2023/11/04 00:54:43;;;;;;;1.70;1.30;;;4.40;99.90;;;;;;5030223;28;20198;-84
2023/11/04 00:57:10;;;;;;;1.87;1.33;;;4.40;99.90;;;;;;5029369;28;20199;-84
2023/11/04 00:59:38;;;;;;;1.40;1.30;;;4.40;99.90;;;;;;5027784;28;20593;-83
2023/11/04 01:02:05;;;;;;;2.10;1.50;;;4.40;99.90;;;;;;5030284;28;20195;-84
2023/11/04 01:04:32;;;;;;;1.40;1.30;;;4.30;99.90;;;;;;5027195;28;20550;-86
2023/11/04 01:06:59;;;;;;;1.57;1.47;;;4.30;99.90;;;;;;5029426;28;20201;-83
2023/11/04 01:09:25;;;;;;;1.40;1.30;;;4.30;99.90;;;;;;5032614;28;20209;-84
2023/11/04 01:11:52;;;;;;;1.67;1.57;;;4.30;99.90;;;;;;5027187;28;20703;-84
2023/11/04 01:14:19;;;;;;;2.67;1.43;;;4.30;99.90;;;;;;5036545;28;20221;-84
2023/11/04 01:16:47;;;;;;;1.50;1.40;;;4.30;99.90;;;;;;5036150;28;20210;-84
2023/11/04 01:19:14;;;;;;;1.43;1.30;;;4.30;99.90;;;;;;5036571;28;20206;-83
2023/11/04 01:21:41;;;;;;;1.50;1.40;;;4.20;99.90;;;;;;5035902;28;20231;-84
2023/11/04 01:24:08;;;;;;;1.77;1.27;;;4.20;99.90;;;;;;5036738;28;20674;-84
2023/11/04 01:26:35;;;;;;;3.07;1.50;;;4.30;99.90;;;;;;5030833;28;20254;-83
2023/11/04 01:29:02;;;;;;;1.53;1.10;;;4.20;99.90;;;;;;5033342;28;20190;-83
2023/11/04 01:31:28;;;;;;;1.40;1.30;;;4.20;99.90;;;;;;5026285;28;20640;-83
2023/11/04 01:33:57;;;;;;;2.67;1.50;;;4.20;99.90;;;;;;5030890;28;20226;-83
2023/11/04 01:36:23;;;;;;;3.90;1.30;;;4.10;99.90;;;;;;5034327;28;20191;-83
2023/11/04 01:38:50;;;;;;;1.77;1.17;;;4.10;99.90;;;;;;5039167;28;20199;-83
2023/11/04 01:41:17;;;;;;;1.33;1.23;;;4.20;99.90;;;;;;5034138;28;20936;-83
2023/11/04 01:43:44;;;;;;;1.20;1.10;;;4.10;99.90;;;;;;5032855;28;20199;-83
2023/11/04 01:46:17;;;;;;;3.03;1.00;;;4.00;99.90;;;;;;5032936;28;20572;-83
2023/11/04 01:48:44;;;;;;;1.40;1.10;;;4.00;99.90;;;;;;5035420;28;20188;-83
2023/11/04 01:51:14;;;;;;;1.10;1.00;;;4.00;99.90;;;;;;5033061;28;20210;-83
2023/11/04 01:53:43;;;;;;;2.10;0.90;;;4.10;99.90;;;;;;5032235;28;20222;-84
2023/11/04 01:56:13;;;;;;;1.40;1.17;;;4.10;99.90;;;;;;5030860;28;20195;-83
2023/11/04 01:58:44;;;;;;;1.83;0.90;;;4.10;99.90;;;;;;5028087;28;20191;-85
2023/11/04 02:01:11;;;;;;;1.20;1.00;;;4.20;99.90;;;;;;5028132;28;20249;-83
2023/11/04 02:03:37;;;;;;;1.00;1.00;;;4.20;99.90;;;;;;5028811;28;20195;-83
2023/11/04 02:06:06;;;;;;;1.00;1.00;;;4.10;99.90;;;;;;5031650;28;20202;-83
2023/11/04 02:08:36;;;;;;;1.30;0.80;;;4.00;99.90;;;;;;5036724;28;20201;-84
2023/11/04 02:11:03;;;;;;;2.50;0.80;;;4.00;99.90;;;;;;5036451;28;20198;-83
2023/11/04 02:13:30;;;;;;;1.97;1.10;;;4.00;99.90;;;;;;5032862;28;20211;-83
2023/11/04 02:15:57;;;;;;;2.50;0.97;;;4.10;99.90;;;;;;5032598;28;20199;-83
2023/11/04 02:18:23;;;;;;;0.70;0.70;;;4.10;99.90;;;;;;5033602;28;20195;-83
2023/11/04 02:20:53;;;;;;;1.00;0.90;;;4.30;99.90;;;;;;5034170;28;20197;-83
2023/11/04 02:23:24;;;;;;;1.20;0.90;;;4.30;99.90;;;;;;5030040;28;20211;-83
2023/11/04 02:25:51;;;;;;;1.00;0.80;;;4.30;99.90;;;;;;5032160;28;20202;-83
2023/11/04 02:28:17;;;;;;;1.27;0.90;;;4.20;99.90;;;;;;5031446;28;20209;-83
2023/11/04 02:30:44;;;;;;;0.80;0.80;;;4.20;99.90;;;;;;5030323;28;20194;-83
2023/11/04 02:33:11;;;;;;;0.70;0.70;;;4.20;99.90;;;;;;5027763;28;20249;-83
2023/11/04 02:35:38;;;;;;;0.70;0.70;;;4.30;99.90;;;;;;5032519;28;20523;-83
2023/11/04 02:38:05;;;;;;;0.90;0.90;;;4.30;99.90;;;;;;5032384;28;20194;-83
2023/11/04 02:40:33;;;;;;;1.00;0.87;;;4.30;99.90;;;;;;5032217;28;20198;-83
2023/11/04 02:43:00;;;;;;;0.90;0.90;;;4.40;99.90;;;;;;5031094;28;20211;-83
2023/11/04 02:45:27;;;;;;;0.70;0.70;;;4.40;99.90;;;;;;5032161;28;20197;-83
2023/11/04 02:47:55;;;;;;;1.70;0.90;;;4.30;99.90;;;;;;5030635;28;20201;-83
2023/11/04 02:50:22;;;;;;;1.10;0.90;;;4.30;99.90;;;;;;5030456;28;20318;-83
2023/11/04 02:52:48;;;;;;;1.50;1.30;;;4.20;99.90;;;;;;5030857;28;20221;-83
2023/11/04 02:55:15;;;;;;;0.90;0.90;;;4.10;99.90;;;;;;5031725;28;20198;-83
2023/11/04 02:57:44;;;;;;;0.90;0.90;;;4.10;99.90;;;;;;5031240;28;20213;-82
2023/11/04 03:00:13;;;;;;;1.93;1.00;;;4.00;99.90;;;;;;5032110;28;20272;-83
2023/11/04 03:02:40;;;;;;;1.17;1.00;;;4.00;99.90;;;;;;5026627;28;20902;-84
2023/11/04 03:05:08;;;;;;;0.93;0.93;;;3.90;99.90;;;;;;5029960;28;20214;-83
2023/11/04 03:07:36;;;;;;;0.80;0.80;;;3.80;99.90;;;;;;5020943;28;20202;-82
2023/11/04 03:10:04;;;;;;;2.67;1.00;;;3.90;99.90;;;;;;5031219;28;20199;-83
2023/11/04 03:12:31;;;;;;;0.80;0.80;;;3.80;99.90;;;;;;5030062;28;20234;-83
2023/11/04 03:14:59;;;;;;;2.27;1.00;;;3.70;99.90;;;;;;5031851;28;20220;-82
2023/11/04 03:17:27;;;;;;;1.80;0.87;;;3.70;99.90;;;;;;5033067;28;20553;-83
2023/11/04 03:19:54;;;;;;;0.80;0.80;;;3.60;99.90;;;;;;5028888;28;20678;-85
2023/11/04 03:22:20;;;;;;;1.67;0.90;;;3.70;99.90;;;;;;5031438;28;20451;-83
2023/11/04 03:24:48;;;;;;;1.07;0.90;;;3.70;99.90;;;;;;5030177;28;20213;-83
2023/11/04 03:27:15;;;;;;;1.00;0.90;;;3.70;99.90;;;;;;5032706;28;20286;-83
2023/11/04 03:29:42;;;;;;;1.07;0.97;;;3.70;99.90;;;;;;5031684;28;20194;-84
2023/11/04 03:32:10;;;;;;;1.23;1.13;;;3.80;99.90;;;;;;5032919;28;20190;-83
2023/11/04 03:34:37;;;;;;;0.67;0.67;;;3.80;99.90;;;;;;5037932;28;20215;-83
2023/11/04 03:37:05;;;;;;;0.90;0.90;;;3.90;99.90;;;;;;5050623;28;20182;-84
2023/11/04 03:39:32;;;;;;;0.97;0.80;;;3.90;99.90;;;;;;5058628;28;20190;-82
2023/11/04 03:41:59;;;;;;;3.87;1.03;;;3.90;99.90;;;;;;5039434;28;20643;-82
2023/11/04 03:44:26;;;;;;;0.90;0.90;;;4.00;99.90;;;;;;5033137;28;20198;-83
2023/11/04 03:46:54;;;;;;;0.77;0.77;;;4.00;99.90;;;;;;5032286;28;20206;-84
2023/11/04 03:49:22;;;;;;;0.90;0.90;;;4.00;99.90;;;;;;5029937;28;20195;-83
2023/11/04 03:51:49;;;;;;;1.23;1.23;;;4.00;99.90;;;;;;5028861;28;20218;-83
2023/11/04 03:54:17;;;;;;;2.13;0.80;;;4.10;99.90;;;;;;5027387;28;20675;-83
2023/11/04 03:56:44;;;;;;;2.33;0.63;;;4.20;99.90;;;;;;5032334;28;20202;-83
2023/11/04 03:59:11;;;;;;;0.73;0.73;;;4.20;99.90;;;;;;5030514;28;20566;-83
2023/11/04 04:01:39;;;;;;;2.20;1.00;;;4.30;99.90;;;;;;5029640;28;20201;-83
2023/11/04 04:04:07;;;;;;;0.70;0.70;;;4.50;99.90;;;;;;5030478;28;20648;-83
2023/11/04 04:06:36;;;;;;;0.77;0.70;;;4.50;99.90;;;;;;5028163;28;20191;-83
2023/11/04 04:09:03;;;;;;;0.73;0.70;;;4.40;99.90;;;;;;5030579;28;20218;-84
2023/11/04 04:11:30;;;;;;;0.90;0.63;;;4.40;99.90;;;;;;5030332;28;20229;-84
2023/11/04 04:13:57;;;;;;;1.13;0.70;;;4.20;99.90;;;;;;5030851;28;20214;-83
2023/11/04 04:16:24;;;;;;;0.80;0.80;;;4.20;99.90;;;;;;5035660;28;20282;-83
2023/11/04 04:18:53;;;;;;;1.00;0.70;;;4.00;99.90;;;;;;5029761;28;20198;-83
2023/11/04 04:21:21;;;;;;;1.07;0.80;;;4.00;99.90;;;;;;5032738;28;20283;-83
2023/11/04 04:23:49;;;;;;;0.90;0.90;;;3.90;99.90;;;;;;5033193;28;20560;-82
2023/11/04 04:26:21;;;;;;;0.80;0.80;;;3.80;99.90;;;;;;5031735;28;20206;-84
2023/11/04 04:28:48;;;;;;;1.27;1.07;;;3.70;99.90;;;;;;5033765;28;20198;-83
2023/11/04 04:31:15;;;;;;;0.90;0.90;;;3.70;99.90;;;;;;5029800;28;20198;-83
2023/11/04 04:33:42;;;;;;;0.70;0.70;;;3.70;99.90;;;;;;5028852;28;20332;-83
2023/11/04 04:36:09;;;;;;;0.80;0.80;;;3.70;99.90;;;;;;5027311;28;21262;-80
2023/11/04 04:38:37;;;;;;;0.73;0.73;;;3.60;99.90;;;;;;5031891;28;20193;-81
2023/11/04 04:41:08;;;;;;;2.40;0.90;;;3.60;99.90;;;;;;5031932;28;20202;-81
2023/11/04 04:43:36;;;;;;;1.70;0.70;;;3.50;99.90;;;;;;5061354;28;20278;-80
2023/11/04 04:46:04;;;;;;;0.90;0.90;;;3.60;99.90;;;;;;5025476;28;20198;-81
2023/11/04 04:48:33;;;;;;;1.03;0.80;;;3.50;99.90;;;;;;5031493;28;20610;-83
2023/11/04 04:51:01;;;;;;;1.07;1.07;;;3.60;99.90;;;;;;5033890;28;20678;-83
2023/11/04 04:53:27;;;;;;;0.83;0.83;;;3.60;99.90;;;;;;5030344;28;20215;-82
2023/11/04 04:55:54;;;;;;;1.10;1.00;;;3.70;99.90;;;;;;5034850;28;20198;-81
2023/11/04 04:58:23;;;;;;;0.90;0.90;;;3.70;99.90;;;;;;5033799;28;20196;-83
2023/11/04 05:00:50;;;;;;;2.10;1.10;;;3.70;99.90;;;;;;5038647;28;20308;-83
2023/11/04 05:03:17;;;;;;;1.13;1.10;;;3.70;99.90;;;;;;5020645;28;20229;-83
2023/11/04 05:05:44;;;;;;;1.43;1.20;;;3.70;99.90;;;;;;5033328;28;20301;-83
2023/11/04 05:08:11;;;;;;;2.27;1.13;;;3.70;99.90;;;;;;5065119;28;20209;-83
2023/11/04 05:10:37;;;;;;;1.00;1.00;;;3.60;99.90;;;;;;5033606;28;20197;-81
2023/11/04 05:13:06;;;;;;;1.70;1.30;;;3.60;99.90;;;;;;5027029;28;20877;-82
2023/11/04 05:15:34;;;;;;;1.10;1.10;;;3.50;99.90;;;;;;5030865;28;20187;-81
2023/11/04 05:18:01;;;;;;;1.43;1.33;;;3.50;99.90;;;;;;5028911;28;20191;-81
2023/11/04 05:20:29;;;;;;;1.23;1.10;;;3.40;99.90;;;;;;5033488;28;20191;-80
2023/11/04 05:22:57;;;;;;;1.27;1.17;;;3.40;99.90;;;;;;5033143;28;20293;-81
2023/11/04 05:25:24;;;;;;;2.60;1.33;;;3.40;99.90;;;;;;5030599;28;20642;-81
2023/11/04 05:27:52;;;;;;;1.20;1.10;;;3.40;99.90;;;;;;5030397;28;20202;-81
2023/11/04 05:30:18;;;;;;;1.30;1.20;;;3.40;99.90;;;;;;5033331;28;20203;-81
2023/11/04 05:32:47;;;;;;;2.00;1.30;;;3.30;99.90;;;;;;5033388;28;20193;-81
2023/11/04 05:35:14;;;;;;;4.73;1.20;;;3.30;99.90;;;;;;5032152;28;20222;-81
2023/11/04 05:37:41;;;;;;;1.50;1.40;;;3.20;99.90;;;;;;5030535;28;20631;-81
2023/11/04 05:40:09;;;;;;;1.13;1.10;;;3.20;99.90;;;;;;5033082;28;20201;-80
2023/11/04 05:42:35;;;;;;;1.23;1.13;;;3.10;99.90;;;;;;5036698;28;20214;-81
2023/11/04 05:45:02;;;;;;;1.40;1.10;;;3.10;99.90;;;;;;5035440;28;20230;-81
2023/11/04 05:47:29;;;;;;;1.50;1.33;;;3.10;99.90;;;;;;5040439;28;20197;-81
2023/11/04 05:49:57;;;;;;;2.17;1.17;;;3.10;99.90;;;;;;5033188;28;20551;-80
2023/11/04 05:52:24;;;;;;;1.30;1.20;;;3.10;99.90;;;;;;5031932;28;20218;-80
2023/11/04 05:54:51;;;;;;;2.00;1.33;;;3.10;99.90;;;;;;5037220;28;20570;-81
2023/11/04 05:57:18;;;;;;;1.40;1.30;;;3.00;99.90;;;;;;5033263;28;20191;-81
2023/11/04 05:59:45;;;;;;;1.30;1.20;;;3.00;99.90;;;;;;5033150;28;20195;-81
2023/11/04 06:02:12;;;;;;;1.50;1.40;;;3.10;99.90;;;;;;5028541;28;20567;-81
2023/11/04 06:04:39;;;;;;;3.10;1.20;;;3.10;99.90;;;;;;5033956;28;20650;-80
2023/11/04 06:07:08;;;;;;;1.57;1.40;;;3.00;99.90;;;;;;5034093;28;20190;-81
2023/11/04 06:09:35;;;;;;;1.30;1.20;;;3.00;99.90;;;;;;5038293;28;20794;-81
2023/11/04 06:12:03;;;;;;;1.87;1.60;;;3.00;99.90;;;;;;5030033;28;20198;-81
2023/11/04 06:14:30;;;;;;;1.40;1.30;;;3.10;99.90;;;;;;5032484;28;20214;-81
2023/11/04 06:16:57;;;;;;;1.57;1.40;;;3.10;99.90;;;;;;5034737;28;20194;-80
2023/11/04 06:19:24;;;;;;;2.27;1.50;;;3.00;99.90;;;;;;5032791;28;20199;-81
2023/11/04 06:21:51;;;;;;;1.43;1.33;;;3.10;99.90;;;;;;5033652;28;20773;-81
2023/11/04 06:24:19;;;;;;;1.60;1.30;;;3.10;99.90;;;;;;5030550;28;20199;-81
2023/11/04 06:26:46;;;;;;;1.27;1.17;;;3.10;99.90;;;;;;5029280;28;20278;-80
2023/11/04 06:29:13;;;;;;;1.57;1.40;;;3.10;99.90;;;;;;5034219;28;20225;-83
2023/11/04 06:31:40;;;;;;;1.40;1.23;;;3.00;99.90;;;;;;5033741;28;20197;-81
2023/11/04 06:34:07;;;;;;;3.03;1.47;;;3.10;99.90;;;;;;5036646;28;20218;-81
2023/11/04 06:36:34;;;;;;;1.43;1.30;;;3.20;99.90;;;;;;5036392;28;20264;-81
2023/11/04 06:39:01;;;;;;;1.27;1.10;;;3.20;99.90;;;;;;5041990;28;20201;-82
2023/11/04 06:41:29;;;;;;;1.57;1.20;;;3.20;99.90;;;;;;5024972;28;20187;-82
2023/11/04 06:43:58;;;;;;;1.20;1.10;;;3.20;99.90;;;;;;5031571;28;20202;-81
2023/11/04 06:46:25;;;;;;;1.30;1.20;;;3.20;99.90;;;;;;5027465;28;20253;-81
2023/11/04 06:48:52;;;;;;;1.40;1.30;;;3.30;99.90;;;;;;5036712;28;20198;-81
2023/11/04 06:51:20;;;;;;;1.50;1.40;;;3.40;99.90;;;;;;5034279;28;20710;-81
2023/11/04 06:53:47;;;;;;;1.40;1.30;;;3.40;99.90;;;;;;5039965;28;20614;-80
2023/11/04 06:56:14;;;;;;;1.80;1.20;;;3.40;99.90;;;;;;5031888;28;20554;-81
2023/11/04 06:58:42;;;;;;;1.53;1.43;;;3.50;99.90;;;;;;5032754;28;20205;-81
2023/11/04 07:01:14;;;;;;;1.50;1.20;;;3.50;99.90;;;;;;5032582;28;20191;-81
2023/11/04 07:03:42;;;;;;;1.47;1.37;;;3.50;99.90;;;;;;5025650;28;20252;-81
2023/11/04 07:06:18;;;;;;;1.40;1.30;;;3.60;99.90;;;;;;5028934;28;20191;-80
2023/11/04 07:08:46;;;;;;;1.40;1.30;;;3.60;99.90;;;;;;5038254;28;20201;-81
2023/11/04 07:11:13;;;;;;;1.73;1.30;;;3.70;99.90;;;;;;5032196;28;20198;-83
2023/11/04 07:13:42;;;;;;;1.43;1.20;;;3.60;99.90;;;;;;5031291;28;20281;-81
2023/11/04 07:16:11;;;;;;;3.17;1.40;;;3.70;99.90;;;;;;5031776;28;20199;-83
2023/11/04 07:18:39;;;;;;;2.87;1.40;;;3.70;99.90;;;;;;5028571;28;20281;-81
2023/11/04 07:21:06;;;;;;;1.30;1.20;;;3.80;99.90;;;;;;5028820;28;20199;-80
2023/11/04 07:23:33;;;;;;;4.43;1.40;;;3.80;99.90;;;;;;5026547;28;20215;-81
2023/11/04 07:26:00;;;;;;;1.93;1.43;;;3.90;99.90;;;;;;5025055;28;20205;-81
2023/11/04 07:28:35;;;;;;;1.50;1.40;;;4.00;99.90;;;;;;5031045;28;20544;-82
2023/11/04 07:31:05;;;;;;;1.47;1.37;;;4.10;99.90;;;;;;5036422;28;20276;-82
2023/11/04 07:33:33;;;;;;;1.30;1.20;;;4.20;99.90;;;;;;5031502;28;20199;-82
2023/11/04 07:36:00;;;;;;;1.30;1.20;;;4.20;99.90;;;;;;5031429;28;20265;-81
2023/11/04 07:38:27;;;;;;;1.23;1.17;;;4.30;99.90;;;;;;5032332;28;20195;-81
2023/11/04 07:40:53;;;;;;;1.20;1.10;;;4.40;99.90;;;;;;5026164;28;20285;-81
2023/11/04 07:43:20;;;;;;;1.90;1.33;;;4.50;99.90;;;;;;5026992;28;20192;-85
2023/11/04 07:45:47;;;;;;;2.13;1.23;;;4.60;99.90;;;;;;5036236;28;20206;-84
2023/11/04 07:48:16;;;;;;;1.57;1.20;;;4.60;99.30;;;;;;5029819;28;20194;-84
2023/11/04 07:50:43;;;;;;;1.40;1.30;;;4.70;99.40;;;;;;5026377;28;20206;-83
2023/11/04 07:53:10;;;;;;;1.73;1.33;;;4.80;98.80;;;;;;5027500;28;20554;-84
2023/11/04 07:55:37;;;;;;;1.23;1.13;;;4.90;99.00;;;;;;5030640;28;20573;-86
2023/11/04 07:58:04;;;;;;;1.20;1.10;;;5.00;98.90;;;;;;5030084;28;20218;-85
2023/11/04 08:00:31;;;;;;;1.40;1.30;;;5.10;98.80;;;;;;5030464;28;20631;-85
2023/11/04 08:02:58;;;;;;;1.20;1.10;;;5.20;98.60;;;;;;5030285;28;20194;-84
2023/11/04 08:05:29;;;;;;;1.37;1.27;;;5.30;98.90;;;;;;5027521;28;20260;-83
2023/11/04 08:07:55;;;;;;;1.43;1.30;;;5.30;98.80;;;;;;5036763;28;20231;-84
2023/11/04 08:10:23;;;;;;;2.83;1.20;;;5.40;98.80;;;;;;5029019;28;20415;-82
2023/11/04 08:12:50;;;;;;;1.40;1.30;;;5.60;98.20;;;;;;5029989;28;20253;-84
2023/11/04 08:15:16;;;;;;;1.30;1.20;;;5.70;97.50;;;;;;5031890;28;20222;-86
2023/11/04 08:17:43;;;;;;;1.20;1.10;;;5.70;96.80;;;;;;5036651;28;20193;-86
2023/11/04 08:20:12;;;;;;;1.40;1.30;;;5.80;96.60;;;;;;5033139;28;20553;-85
2023/11/04 08:22:40;;;;;;;2.40;1.37;;;6.00;96.60;;;;;;5025879;28;20197;-83
2023/11/04 08:25:08;;;;;;;1.20;1.10;;;6.10;96.50;;;;;;5029647;28;20551;-83
2023/11/04 08:27:35;;;;;;;1.17;1.07;;;6.20;96.60;;;;;;5035428;28;20199;-83
2023/11/04 08:30:03;;;;;;;1.45;1.35;;;6.40;96.30;;;;;;5031357;28;20190;-83
2023/11/04 08:32:30;;;;;;;4.13;1.20;;;6.70;95.10;;;;;;5026371;28;20190;-86
2023/11/04 08:34:58;;;;;;;1.45;1.20;;;6.70;94.80;;;;;;5032994;28;20225;-82
2023/11/04 08:37:25;;;;;;;1.52;1.20;;;7.10;94.30;;;;;;5031130;28;20194;-83
2023/11/04 08:39:54;;;;;;;2.38;1.05;;;7.70;93.60;;;;;;5034271;28;20822;-82
2023/11/04 08:42:21;;;;;;;1.20;1.10;;;8.20;90.30;;;;;;5031968;28;20202;-83
2023/11/04 08:44:48;;;;;;;1.92;1.10;;;8.40;90.40;;;;;;5046042;28;20198;-82
2023/11/04 08:47:16;;;;;;;1.58;1.33;;;8.70;87.10;;;;;;5032390;28;20191;-84
2023/11/04 08:49:43;;;;;;;1.08;1.00;;;9.20;86.00;;;;;;5028649;28;20237;-84
2023/11/04 08:52:10;;;;;;;1.20;1.10;;;9.50;81.80;;;;;;5026234;28;20226;-84
2023/11/04 08:54:37;;;;;;;1.30;1.10;;;9.70;80.80;;;;;;5033839;28;20210;-81
2023/11/04 08:57:08;;;;;;;1.38;1.27;;;10.70;75.70;;;;;;5034878;28;20197;-83
2023/11/04 08:59:36;;;;;;;2.95;1.30;;;11.80;51.60;;;;;;5032755;28;20198;-83
2023/11/04 09:02:04;;;;;;;1.33;1.23;;;12.10;34.50;;;;;;5058213;28;20197;-84
2023/11/04 09:04:31;;;;;;;0.95;0.93;;;12.80;33.60;;;;;;5034608;28;20191;-83
2023/11/04 09:06:58;;;;;;;1.20;1.10;;;14.00;27.00;;;;;;5033164;28;20600;-82
2023/11/04 09:09:25;;;;;;;1.27;1.17;;;15.00;20.70;;;;;;5026975;28;20207;-82
2023/11/04 09:11:55;;;;;;;1.40;1.23;;;15.20;19.40;;;;;;5029879;28;20206;-83
2023/11/04 09:14:23;;;;;;;3.15;1.30;;;15.40;19.40;;;;;;5032295;28;20195;-84
2023/11/04 09:16:50;;;;;;;2.33;2.05;;;14.80;19.00;;;;;;5035062;28;20198;-82
2023/11/04 09:19:17;;;;;;;1.58;1.48;;;14.40;20.10;;;;;;5063750;28;20194;-83
2023/11/04 09:21:44;;;;;;;2.45;1.92;;;14.80;19.40;;;;;;5029586;28;20202;-83
2023/11/04 09:24:11;;;;;;;1.88;1.60;;;15.30;19.10;;;;;;5032271;28;20191;-82
2023/11/04 09:26:37;;;;;;;0.98;0.98;;;16.00;18.90;;;;;;5032912;28;20202;-83
2023/11/04 09:29:05;;;;;;;1.10;0.95;;;16.10;17.10;;;;;;5027095;28;20246;-83
2023/11/04 09:31:35;;;;;;;0.88;0.88;;;15.80;17.00;;;;;;5029261;28;20187;-83
2023/11/04 09:34:02;;;;;;;0.82;0.82;;;15.50;17.40;;;;;;5029760;28;20201;-82
2023/11/04 09:36:29;;;;;;;2.30;2.13;;;16.30;16.70;;;;;;5026876;28;20862;-85
2023/11/04 09:38:56;;;;;;;1.88;1.73;;;15.80;16.50;;;;;;5035276;28;20233;-83
2023/11/04 09:41:24;;;;;;;1.15;1.10;;;16.50;15.40;;;;;;5031153;28;20241;-83
2023/11/04 09:43:51;;;;;;;1.13;1.10;;;17.00;14.10;;;;;;5036063;28;20241;-83
2023/11/04 09:46:19;;;;;;;1.08;1.08;;;16.80;14.70;;;;;;5026973;28;20231;-84
2023/11/04 09:48:47;;;;;;;1.00;1.00;;;16.50;14.30;;;;;;5029327;28;20252;-83
2023/11/04 09:51:17;;;;;;;1.15;1.05;;;16.30;14.80;;;;;;5032271;28;20211;-84
2023/11/04 09:53:53;;;;;;;2.20;1.05;;;16.60;14.80;;;;;;5033764;28;20201;-83
2023/11/04 09:56:22;;;;;;;1.10;1.10;;;16.40;15.20;;;;;;5033817;28;20222;-83
2023/11/04 09:58:49;;;;;;;1.13;1.10;;;15.50;15.40;;;;;;5038042;28;20281;-83
2023/11/04 10:01:18;;;;;;;1.30;1.20;;;15.80;15.10;;;;;;5040726;28;20190;-82
2023/11/04 10:03:45;;;;;;;1.08;1.00;;;15.60;16.10;;;;;;5045224;28;20233;-82
2023/11/04 10:06:13;;;;;;;1.00;1.00;;;15.80;15.70;;;;;;5043734;28;20685;-82
2023/11/04 10:08:40;;;;;;;1.20;1.10;;;15.70;15.20;;;;;;5035169;28;20194;-83
2023/11/04 10:11:07;;;;;;;1.58;1.20;;;15.80;15.80;;;;;;5030296;28;20211;-83
2023/11/04 10:13:34;;;;;;;1.42;1.33;;;15.50;14.50;;;;;;5032940;28;20285;-85
2023/11/04 10:16:03;;;;;;;1.25;1.10;;;14.80;17.30;;;;;;5033918;28;20218;-84
2023/11/04 10:18:31;;;;;;;1.33;1.23;;;14.90;17.90;;;;;;5040731;28;20216;-87
2023/11/04 10:20:58;;;;;;;1.63;1.42;;;14.50;18.30;;;;;;5033071;28;20191;-85
2023/11/04 10:23:27;;;;;;;3.58;1.70;;;14.10;19.20;;;;;;5026287;28;20210;-86
2023/11/04 10:25:53;;;;;;;1.50;1.40;;;14.60;18.60;;;;;;5028054;28;20203;-86
2023/11/04 10:28:23;;;;;;;3.22;2.97;;;14.60;18.60;;;;;;5031881;28;20190;-86
2023/11/04 10:30:52;;;;;;;4.15;3.75;;;14.30;20.30;;;;;;5034599;28;20194;-86
2023/11/04 10:33:23;;;;;;;3.28;2.30;;;13.70;20.90;;;;;;5037283;28;20198;-86
2023/11/04 10:35:50;;;;;;;1.30;1.20;;;12.90;22.80;;;;;;5031188;28;20601;-86
2023/11/04 10:38:19;;;;;;;6.32;5.60;;;12.70;22.90;;;;;;5032524;28;20284;-87
2023/11/04 10:40:49;;;;;;;2.88;2.47;;;13.30;23.70;;;;;;5029320;28;20202;-86
2023/11/04 10:43:21;;;;;;;1.92;1.80;;;13.30;20.10;;;;;;5028420;28;20191;-86
2023/11/04 10:45:55;;;;;;;0.98;0.98;;;13.30;21.50;;;;;;5032597;28;20244;-86
2023/11/04 10:48:37;;;;;;;1.30;1.02;;;12.50;20.10;;;;;;5034793;28;20300;-86
2023/11/04 10:51:13;;;;;;;4.15;2.05;;;13.00;20.60;;;;;;5032834;28;20217;-86
2023/11/04 10:53:58;;;;;;;1.02;1.00;;;12.80;22.50;;;;;;5034866;28;20193;-86
2023/11/04 10:56:32;;;;;;;1.30;1.20;;;12.20;21.80;;;;;;5029472;28;20226;-86
2023/11/04 10:59:05;;;;;;;0.98;0.90;;;11.90;23.60;;;;;;5032854;28;20661;-85
2023/11/04 11:01:51;;;;;;;1.48;1.38;;;11.80;23.80;;;;;;5029507;28;20206;-88
2023/11/04 11:04:19;;;;;;;1.23;1.05;;;11.90;26.30;;;;;;5030091;28;20198;-85
2023/11/04 11:06:47;;;;;;;1.20;1.10;;;11.40;24.80;;;;;;5058695;28;20258;-86
2023/11/04 11:09:15;;;;;;;1.30;1.20;;;11.30;26.00;;;;;;5030322;28;20210;-85
2023/11/04 11:11:51;;;;;;;2.45;1.50;;;11.00;28.30;;;;;;5036698;28;20277;-86
2023/11/04 11:14:19;;;;;;;1.65;0.90;;;11.00;29.40;;;;;;5028100;28;20197;-86
2023/11/04 11:16:46;;;;;;;3.20;1.10;;;11.00;28.10;;;;;;5028312;28;20231;-86
2023/11/04 11:19:13;;;;;;;1.33;1.00;;;11.20;28.10;;;;;;5025733;28;20195;-87
2023/11/04 11:21:49;;;;;;;1.23;1.10;;;11.10;24.50;;;;;;5031808;28;20203;-85
2023/11/04 11:24:20;;;;;;;1.77;1.02;;;10.90;27.90;;;;;;5029939;28;20209;-90
2023/11/04 11:26:49;;;;;;;1.10;0.70;;;10.80;24.30;;;;;;5033384;28;20289;-85
2023/11/04 11:29:22;;;;;;;1.25;0.85;;;10.60;25.50;;;;;;5015940;28;20203;-85
2023/11/04 11:31:50;;;;;;;1.58;0.80;;;10.30;26.10;;;;;;5027640;28;20296;-85
2023/11/04 11:34:17;;;;;;;1.02;1.02;;;10.20;27.60;;;;;;5031942;28;20645;-85
2023/11/04 11:36:45;;;;;;;0.82;0.82;;;10.30;30.30;;;;;;5037751;28;20213;-85
2023/11/04 11:39:13;;;;;;;0.90;0.90;;;10.50;29.40;;;;;;5031729;28;20201;-85
2023/11/04 11:41:43;;;;;;;0.63;0.63;;;10.50;28.80;;;;;;5030440;28;20281;-85
2023/11/04 11:44:12;;;;;;;1.00;1.00;;;10.60;29.80;;;;;;5030443;28;20234;-86
2023/11/04 11:47:03;;;;;;;1.45;1.35;;;10.70;30.70;;;;;;5034355;28;20195;-86
2023/11/04 11:49:31;;;;;;;1.40;1.08;;;10.90;33.30;;;;;;5027559;28;20203;-84
2023/11/04 11:51:58;;;;;;;1.20;1.10;;;11.10;30.10;;;;;;5031345;28;20225;-85
2023/11/04 11:54:25;;;;;;;1.50;1.23;;;11.30;29.00;;;;;;5030225;28;20202;-85
2023/11/04 11:56:52;;;;;;;0.90;0.90;;;11.60;28.20;;;;;;5029910;28;20249;-84
2023/11/04 11:59:21;;;;;;;1.33;1.20;;;11.30;26.40;;;;;;5026421;28;20202;-84
2023/11/04 12:01:48;;;;;;;1.20;1.10;;;11.30;29.00;;;;;;5025905;28;20202;-85
2023/11/04 12:04:17;;;;;;;2.03;1.30;;;11.30;28.70;;;;;;5030427;28;20190;-85
2023/11/04 12:06:44;;;;;;;1.38;1.27;;;11.30;26.70;;;;;;5023284;28;20206;-85
2023/11/04 12:09:12;;;;;;;1.20;1.00;;;11.20;28.70;;;;;;5025102;28;20210;-85
2023/11/04 12:11:40;;;;;;;1.30;1.20;;;10.60;29.00;;;;;;5030552;28;20277;-84
2023/11/04 12:14:07;;;;;;;1.38;1.27;;;10.70;30.60;;;;;;5064898;28;20293;-85
2023/11/04 12:19:19;;;;;;;1.05;1.05;;;11.10;31.60;;;;;;5026443;28;20605;-85
2023/11/04 12:21:47;;;;;;;1.15;0.90;;;11.30;28.00;;;;;;5035477;28;20190;-83
2023/11/04 12:24:14;;;;;;;9.68;7.10;;;11.10;28.20;;;;;;5031582;28;20205;-84
2023/11/04 12:26:44;;;;;;;1.77;1.23;;;11.10;30.20;;;;;;5031170;28;20206;-85
2023/11/04 12:29:11;;;;;;;1.38;1.15;;;11.10;29.40;;;;;;5026845;28;20780;-84
2023/11/04 12:31:42;;;;;;;1.20;1.10;;;11.10;32.80;;;;;;5030159;28;20526;-84
2023/11/04 12:34:09;;;;;;;1.25;1.10;;;10.80;29.30;;;;;;5056875;28;20210;-85
2023/11/04 12:36:36;;;;;;;1.30;1.02;;;10.60;30.60;;;;;;5031389;28;20565;-85
2023/11/04 12:39:04;;;;;;;1.27;1.13;;;10.60;28.70;;;;;;5030361;28;20659;-85
2023/11/04 12:41:31;;;;;;;1.60;1.13;;;10.70;29.50;;;;;;5034655;28;20194;-84
2023/11/04 12:44:01;;;;;;;1.20;1.10;;;11.00;30.30;;;;;;5029782;28;20217;-86
2023/11/04 12:46:30;;;;;;;1.15;1.00;;;11.10;28.30;;;;;;5032962;28;20217;-84
2023/11/04 12:48:58;;;;;;;0.90;0.90;;;11.50;28.10;;;;;;5034531;28;20193;-86
2023/11/04 12:51:26;;;;;;;1.98;1.10;;;11.80;25.20;;;;;;5024623;28;20599;-85
2023/11/04 12:53:53;;;;;;;1.48;1.10;;;12.10;23.70;;;;;;5031889;28;20218;-85
2023/11/04 12:56:20;;;;;;;1.90;1.13;;;12.20;22.40;;;;;;5030801;28;20292;-85
2023/11/04 12:58:47;;;;;;;1.20;0.80;;;11.80;22.30;;;;;;5026636;28;20191;-85